• Join FlightAware (Why Join?)
  • Login
  • US Flag 
05:12AM EDT


 

Airport Tracker/Info


-or-


 

Live Flight TrackerFlight Track Log ✈ SWA494 ✈ 18-Apr-2013 ✈ KLAX - KHOU

Flight Track Log - Related Links

Times and Time Zones

All times are in EDT time to prevent confusion due to time zone crossing. See the SWA494 flight status page for this flight to view local times or setup timezone preferences in your user account.

Time Position Orientation Groundspeed Altitude Reporting Facility
EDT Latitude Longitude Course Direction KTS MPH feet Rate Location/Type
03:07PM 33.9311 -118.4619 211° Southwest 166 191 1,700  Level Los Angeles Center
03:08PM 33.8808 -118.4983 211° Southwest 227 261 3,400 1,800 Climbing Los Angeles Center
03:09PM 33.8100 -118.5083 187° South 271 312 5,500 2,580 Climbing Los Angeles Center
03:10PM 33.7147 -118.5139 183° South 292 336 8,800 2,460 Climbing Los Angeles Center
03:11PM 33.6703 -118.4325 123° Southeast 305 351 10,700 2,220 Climbing Los Angeles Center
03:12PM 33.6433 -118.3244 107° East 335 386 13,500 2,640 Climbing Los Angeles Center
03:13PM 33.6442 -118.2069 89° East 362 417 16,200 2,700 Climbing Los Angeles Center
03:14PM 33.6442 -118.0564 90° East 379 436 19,100 2,700 Climbing Los Angeles Center
03:15PM 33.6444 -117.9217 90° East 401 461 21,800 2,280 Climbing Los Angeles Center
03:16PM 33.6439 -117.7833 90° East 413 475 23,900 1,920 Climbing Los Angeles Center
03:17PM 33.6431 -117.6367 90° East 436 502 25,800 1,740 Climbing Los Angeles Center
03:18PM 33.6422 -117.4853 90° East 451 519 27,600 1,800 Climbing Los Angeles Center
03:20PM 33.6408 -117.2983 90° East 467 537 29,600 1,680 Climbing Los Angeles Center
03:21PM 33.6394 -117.1378 91° East 479 551 31,100 1,620 Climbing Los Angeles Center
03:22PM 33.6225 -116.9775 97° East 489 563 33,000 1,500 Climbing Los Angeles Center
03:23PM 33.6014 -116.8028 98° East 492 566 34,300 1,200 Climbing Los Angeles Center
03:24PM 33.5806 -116.6386 99° East 497 572 35,500 1,020 Climbing Los Angeles Center
03:25PM 33.5589 -116.4719 99° East 503 579 36,500 720 Climbing Los Angeles Center
03:26PM 33.5372 -116.3036 99° East 508 585 37,000 240 Climbing Los Angeles Center
03:27PM 33.5153 -116.1356 99° East 509 586 37,000  Level Los Angeles Center
03:28PM 33.4936 -115.9681 99° East 507 583 37,000  Level Los Angeles Center
03:29PM 33.4669 -115.7686 99° East 505 581 37,000  Level Los Angeles Center
03:30PM 33.4439 -115.6019 99° East 506 582 37,000  Level Los Angeles Center
03:31PM 33.4208 -115.4356 99° East 505 581 37,000  Level Los Angeles Center
03:32PM 33.3978 -115.2692 99° East 505 581 37,000  Level Los Angeles Center
03:33PM 33.3756 -115.1025 99° East 507 583 37,000  Level Los Angeles Center
03:34PM 33.3517 -114.9361 100° East 508 585 37,000  Level Los Angeles Center
03:35PM 33.3239 -114.7344 99° East 511 588 37,000  Level Los Angeles Center
03:36PM 33.2986 -114.5681 100° East 509 586 37,000  Level Los Angeles Center
03:37PM 33.2867 -114.4514 97° East 510 587 37,000  Level Albuquerque Center
03:38PM 33.2614 -114.2847 100° East 510 587 37,000  Level Albuquerque Center
03:39PM 33.2372 -114.1181 100° East 510 587 37,000  Level Albuquerque Center
03:40PM 33.2122 -113.9494 100° East 513 590 37,000  Level Albuquerque Center
03:41PM 33.1867 -113.7806 100° East 515 593 37,000  Level Albuquerque Center
03:42PM 33.1611 -113.6136 100° East 513 590 37,000  Level Albuquerque Center
03:43PM 33.1350 -113.4442 100° East 515 593 37,000  Level Albuquerque Center
03:44PM 33.1031 -113.2417 101° East 516 594 37,000  Level Albuquerque Center
03:45PM 33.0778 -113.0731 100° East 515 593 37,000  Level Albuquerque Center
03:46PM 33.0508 -112.9067 101° East 512 589 37,000  Level Albuquerque Center
03:47PM 33.0247 -112.7367 100° East 515 593 37,000  Level Albuquerque Center
03:48PM 32.9978 -112.5681 101° East 517 595 37,000  Level Albuquerque Center
03:49PM 32.9697 -112.3992 101° East 517 595 37,000  Level Albuquerque Center
03:50PM 32.9389 -112.2033 101° East 519 597 37,000  Level Albuquerque Center
03:51PM 32.9103 -112.0342 101° East 523 602 37,000  Level Albuquerque Center
03:52PM 32.8833 -111.8656 101° East 523 602 37,000  Level Albuquerque Center
03:53PM 32.8550 -111.6975 101° East 522 601 37,000  Level Albuquerque Center
03:54PM 32.8267 -111.5300 101° East 522 601 37,000  Level Albuquerque Center
03:55PM 32.7925 -111.3286 101° East 521 600 37,000  Level Albuquerque Center
03:56PM 32.7642 -111.1600 101° East 523 602 37,000  Level Albuquerque Center
03:57PM 32.7356 -110.9925 101° East 522 601 37,000  Level Albuquerque Center
03:58PM 32.7047 -110.8256 102° East 521 600 37,000  Level Albuquerque Center
04:00PM 32.6756 -110.6553 101° East 524 603 37,000  Level Albuquerque Center
04:01PM 32.6392 -110.4533 102° East 525 604 37,000  Level Albuquerque Center
04:02PM 32.6089 -110.2853 102° East 527 606 37,000  Level Albuquerque Center
04:03PM 32.5781 -110.1147 102° East 533 613 37,000  Level Albuquerque Center
04:04PM 32.5467 -109.9444 102° East 535 616 37,000  Level Albuquerque Center
04:05PM 32.5142 -109.7717 103° East 541 623 37,000  Level Albuquerque Center
04:06PM 32.4744 -109.5617 103° East 551 634 37,000  Level Albuquerque Center
04:07PM 32.4422 -109.3911 103° East 546 628 37,000  Level Albuquerque Center
04:08PM 32.4094 -109.2172 103° East 547 629 37,000  Level Albuquerque Center
04:09PM 32.3767 -109.0450 103° East 547 629 37,000  Level Albuquerque Center
04:10PM 32.3367 -108.8367 103° East 549 632 37,000  Level Albuquerque Center
04:11PM 32.3022 -108.6628 103° East 551 634 37,000  Level Albuquerque Center
04:12PM 32.2692 -108.4878 103° East 552 635 37,000  Level Albuquerque Center
04:13PM 32.2317 -108.2967 103° East 557 641 37,000  Level Albuquerque Center
04:14PM 32.1967 -108.1181 103° East 559 643 37,000  Level Albuquerque Center
04:15PM 32.1606 -107.9403 103° East 561 646 37,000  Level Albuquerque Center
04:16PM 32.1178 -107.7256 103° East 563 648 37,000  Level Albuquerque Center
04:17PM 32.0814 -107.5478 104° East 564 649 37,000  Level Albuquerque Center
04:18PM 32.0461 -107.3708 103° East 563 648 37,000  Level Albuquerque Center
04:19PM 32.0100 -107.1944 104° East 560 644 37,000  Level Albuquerque Center
04:20PM 31.9733 -107.0186 104° East 559 643 37,000  Level Albuquerque Center
04:21PM 31.9294 -106.8078 104° East 558 642 37,000  Level Albuquerque Center
04:22PM 31.8911 -106.6322 104° East 558 642 37,000  Level Albuquerque Center
04:23PM 31.8542 -106.4575 104° East 560 644 37,000  Level Albuquerque Center
04:24PM 31.8167 -106.2806 104° East 561 646 37,000  Level Albuquerque Center
04:25PM 31.7722 -106.1072 107° East 556 640 37,000  Level Albuquerque Center
04:26PM 31.7183 -105.8969 107° East 559 643 37,000  Level Albuquerque Center
04:27PM 31.6747 -105.7211 106° East 561 646 37,000  Level Albuquerque Center
04:28PM 31.6300 -105.5442 106° East 564 649 37,000  Level Albuquerque Center
04:29PM 31.5847 -105.3675 107° East 565 650 37,000  Level Albuquerque Center
04:31PM 31.5403 -105.1897 106° East 565 650 37,000  Level Albuquerque Center
04:32PM 31.4950 -105.0117 107° East 567 652 37,000  Level Albuquerque Center
04:33PM 31.4486 -104.8306 107° East 572 658 37,000  Level Albuquerque Center
04:34PM 31.3931 -104.6147 107° East 574 661 37,000  Level Albuquerque Center
04:35PM 31.3464 -104.4369 107° East 573 659 37,000  Level Albuquerque Center
04:36PM 31.2997 -104.2581 107° East 572 658 37,000 -60 Level Albuquerque Center
04:37PM 31.2528 -104.0819 107° East 569 655 36,900  Descending Albuquerque Center
04:38PM 31.2050 -103.9039 107° East 572 658 37,000  Climbing Albuquerque Center
04:39PM 31.1486 -103.6961 108° East 571 657 37,000  Level Albuquerque Center
04:40PM 31.1017 -103.5211 107° East 568 654 37,000  Level Albuquerque Center
04:41PM 31.0525 -103.3483 108° East 565 650 37,000  Level Albuquerque Center
04:42PM 31.0053 -103.1750 108° East 563 648 37,000  Level Albuquerque Center
04:43PM 30.9581 -103.0042 108° East 561 646 37,000  Level Albuquerque Center
04:44PM 30.9131 -102.8328 107° East 558 642 37,000  Level Albuquerque Center
04:45PM 30.8603 -102.6242 106° East 564 649 37,000  Level Albuquerque Center
04:46PM 30.8156 -102.4522 107° East 562 647 37,000  Level Albuquerque Center
04:47PM 30.7700 -102.2811 107° East 562 647 37,000  Level Albuquerque Center
04:48PM 30.7250 -102.1108 107° East 559 643 37,000  Level Albuquerque Center
04:49PM 30.6725 -101.9086 107° East 555 639 37,000  Level Albuquerque Center
04:50PM 30.6267 -101.7386 107° East 554 638 37,000  Level Albuquerque Center
04:51PM 30.5917 -101.6031 107° East 549 632 37,000  Level Houston Center
04:52PM 30.5403 -101.4169 108° East 541 623 37,000  Level Houston Center
04:53PM 30.4958 -101.2528 107° East 537 618 37,000  Level Houston Center
04:54PM 30.4492 -101.0892 108° East 535 616 37,000  Level Houston Center
04:55PM 30.4050 -100.9222 107° East 539 620 37,000  Level Houston Center
04:56PM 30.3592 -100.7581 108° East 537 618 37,000  Level Houston Center
04:57PM 30.3064 -100.5603 107° East 536 617 37,000  Level Houston Center
04:58PM 30.2600 -100.3956 108° East 535 616 37,000  Level Houston Center
04:59PM 30.2125 -100.2269 108° East 542 624 37,000  Level Houston Center
05:00PM 30.1656 -100.0583 108° East 541 623 37,000  Level Houston Center
05:01PM 30.1183 -99.8925 108° East 539 620 37,000  Level Houston Center
05:02PM 30.0714 -99.7286 108° East 536 617 37,000  Level Houston Center
05:04PM 30.0242 -99.5658 108° East 533 613 37,000  Level Houston Center
05:05PM 29.9778 -99.4053 108° East 530 610 37,000  Level Houston Center
05:06PM 29.9197 -99.2081 109° East 527 606 37,000  Level Houston Center
05:07PM 29.8639 -99.0542 113° Southeast 521 600 37,000  Level Houston Center
05:08PM 29.8078 -98.9019 113° Southeast 517 595 37,000  Level Houston Center
05:09PM 29.7458 -98.7369 113° Southeast 519 597 37,000  Level Houston Center
05:10PM 29.6906 -98.5861 113° Southeast 514 592 37,000  Level Houston Center
05:11PM 29.6475 -98.4078 105° East 544 626 37,000  Level Houston Center
05:12PM 29.6483 -98.2331 90° East 546 628 37,000  Level Houston Center
05:13PM 29.6503 -98.0594 89° East 544 626 37,000  Level Houston Center
05:14PM 29.6525 -97.8725 89° East 542 624 37,000  Level Houston Center
05:15PM 29.6253 -97.7200 102° East 538 619 37,000 -540 Level Houston Center
05:16PM 29.5497 -97.5850 123° Southeast 507 583 36,000 -1,800 Descending Houston Center
05:17PM 29.4750 -97.4486 122° Southeast 513 590 33,300 -3,120 Descending Houston Center
05:18PM 29.4411 -97.2456 101° East 546 628 29,500 -3,240 Descending Houston Center
05:19PM 29.4228 -97.0736 97° East 543 625 26,700 -2,520 Descending Houston Center
05:20PM 29.4039 -96.9028 97° East 535 616 24,400 -2,400 Descending Houston Center
05:21PM 29.3858 -96.7364 97° East 501 577 21,800 -2,520 Descending Houston Center
05:22PM 29.3672 -96.5828 98° East 488 562 19,200 -2,220 Descending Houston Center
05:23PM 29.3611 -96.5178 96° East 475 547 18,700 -2,460 Descending Houston Center
05:23PM 29.3447 -96.3950 99° East 436 502 16,100 -2,100 Descending Houston Center
05:24PM 29.3353 -96.3033 97° East 437 503 15,200 -1,380 Descending Houston Center
05:25PM 29.3200 -96.1811 98° East 396 456 13,600 -1,560 Descending Houston Center
05:26PM 29.3067 -96.0414 96° East 371 427 12,000 -900 Descending Houston Center
05:27PM 29.3900 -95.9444 45° Northeast 334 384 11,600 -660 Descending Houston Center
05:28PM 29.4361 -95.8961 42° Northeast 333 383 10,700 -1,440 Descending Houston Center
05:30PM 29.5025 -95.7925 54° Northeast 307 353 8,700 -1,860 Descending Houston Center
05:30PM 29.4908 -95.7100 99° East 302 348 6,900 -1,440 Descending Houston Center
05:31PM 29.4822 -95.6186 96° East 295 339 6,000 -1,200 Descending Houston Center
05:33PM 29.4728 -95.5314 97° East 281 323 4,500 -1,320 Descending Houston Center
05:34PM 29.4856 -95.4511 80° East 276 318 3,300 -900 Descending Houston Center
05:35PM 29.5439 -95.3914 42° Northeast 196 226 2,600 -780 Descending Houston Center
05:36PM 29.5783 -95.3536 44° Northeast 155 178 1,700 -840 Descending Houston Center
05:37PM 29.6044 -95.3233 45° Northeast 162 186 1,000 -780 Descending Houston Center
05:38PM 29.6325 -95.2936 43° Northeast 145 167 200 -480 Descending Houston Center
05:39PM 29.6603 -95.2636 43° Northeast 144 166 100 -120 Descending Houston Center